createdAt,value
2023-03-07T00:01:05.597Z,44.50
2023-03-07T00:03:32.401Z,44.50
2023-03-07T00:06:02.935Z,44.60
2023-03-07T00:08:30.370Z,44.50
2023-03-07T00:11:00.166Z,44.50
2023-03-07T00:13:28.582Z,44.50
2023-03-07T00:15:55.199Z,45.00
2023-03-07T00:18:21.777Z,45.00
2023-03-07T00:20:56.556Z,45.00
2023-03-07T00:23:23.102Z,45.10
2023-03-07T00:26:15.960Z,45.10
2023-03-07T00:28:43.028Z,44.60
2023-03-07T00:31:10.643Z,45.10
2023-03-07T00:33:37.632Z,44.90
2023-03-07T00:36:06.039Z,45.30
2023-03-07T00:38:33.101Z,44.60
2023-03-07T00:41:04.558Z,44.80
2023-03-07T00:43:31.558Z,44.70
2023-03-07T00:45:58.431Z,45.00
2023-03-07T00:48:25.602Z,44.70
2023-03-07T00:50:52.617Z,45.10
2023-03-07T00:53:19.643Z,44.80
2023-03-07T00:55:59.896Z,44.70
2023-03-07T00:58:30.824Z,45.40
2023-03-07T01:00:58.674Z,44.80
2023-03-07T01:03:26.056Z,45.00
2023-03-07T01:05:53.101Z,45.00
2023-03-07T01:08:20.131Z,45.10
2023-03-07T01:10:48.709Z,45.00
2023-03-07T01:13:16.411Z,44.50
2023-03-07T01:15:43.254Z,45.10
2023-03-07T01:18:10.076Z,44.80
2023-03-07T01:20:37.295Z,44.80
2023-03-07T01:23:04.126Z,44.70
2023-03-07T01:25:30.874Z,45.20
2023-03-07T01:27:57.491Z,44.90
2023-03-07T01:30:24.984Z,44.80
2023-03-07T01:32:55.957Z,44.90
2023-03-07T01:35:22.887Z,44.90
2023-03-07T01:37:53.098Z,44.90
2023-03-07T01:40:20.992Z,44.80
2023-03-07T01:42:47.606Z,45.00
2023-03-07T01:45:14.136Z,44.90
2023-03-07T01:47:41.364Z,44.80
2023-03-07T01:50:11.720Z,45.20
2023-03-07T01:52:40.976Z,45.00
2023-03-07T01:55:25.528Z,44.90
2023-03-07T01:57:52.912Z,44.90
2023-03-07T02:00:26.176Z,44.80
2023-03-07T02:02:59.931Z,44.80
2023-03-07T02:05:29.066Z,44.90
2023-03-07T02:07:57.034Z,45.20
2023-03-07T02:10:24.324Z,45.50
2023-03-07T02:12:51.801Z,45.30
2023-03-07T02:15:18.530Z,45.30
2023-03-07T02:17:45.389Z,45.20
2023-03-07T02:20:30.565Z,45.70
2023-03-07T02:22:57.300Z,45.80
2023-03-07T02:25:39.204Z,45.70
2023-03-07T02:28:07.127Z,45.60
2023-03-07T02:30:33.697Z,45.00
2023-03-07T02:33:00.269Z,45.40
2023-03-07T02:35:26.932Z,45.10
2023-03-07T02:37:59.434Z,45.10
2023-03-07T02:40:29.365Z,45.20
2023-03-07T02:42:57.399Z,44.80
2023-03-07T02:45:23.994Z,45.70
2023-03-07T02:47:50.555Z,44.70
2023-03-07T02:50:17.558Z,44.90
2023-03-07T02:52:44.772Z,45.20
2023-03-07T02:55:11.349Z,45.20
2023-03-07T02:57:38.143Z,44.80
2023-03-07T03:00:07.396Z,45.20
2023-03-07T03:02:34.233Z,44.90
2023-03-07T03:05:00.827Z,45.10
2023-03-07T03:07:27.400Z,44.70
2023-03-07T03:09:53.948Z,45.00
2023-03-07T03:12:20.494Z,45.10
2023-03-07T03:14:47.083Z,44.90
2023-03-07T03:17:13.683Z,44.70
2023-03-07T03:19:40.284Z,45.20
2023-03-07T03:22:06.860Z,45.00
2023-03-07T03:24:33.504Z,45.10
2023-03-07T03:27:00.129Z,45.40
2023-03-07T03:29:27.145Z,45.20
2023-03-07T03:31:53.783Z,45.10
2023-03-07T03:34:20.369Z,45.10
2023-03-07T03:36:46.988Z,45.00
2023-03-07T03:39:14.606Z,44.90
2023-03-07T03:41:41.203Z,45.00
2023-03-07T03:44:08.593Z,44.80
2023-03-07T03:46:35.432Z,45.10
2023-03-07T03:49:02.363Z,44.80
2023-03-07T03:51:28.924Z,45.00
2023-03-07T03:53:57.514Z,44.80
2023-03-07T03:56:24.877Z,44.80
2023-03-07T03:58:52.552Z,44.80
2023-03-07T04:01:20.250Z,45.00
2023-03-07T04:03:48.039Z,44.60
2023-03-07T04:06:17.263Z,44.60
2023-03-07T04:08:44.369Z,45.40
2023-03-07T04:11:10.948Z,46.20
2023-03-07T04:13:37.634Z,44.80
2023-03-07T04:16:04.910Z,46.20
2023-03-07T04:18:31.735Z,45.40
2023-03-07T04:20:58.311Z,45.00
2023-03-07T04:23:25.570Z,45.80
2023-03-07T04:25:55.609Z,45.50
2023-03-07T04:28:23.192Z,45.70
2023-03-07T04:30:49.918Z,44.90
2023-03-07T04:33:16.784Z,45.70
2023-03-07T04:35:43.396Z,45.50
2023-03-07T04:38:10.652Z,45.40
2023-03-07T04:40:37.219Z,45.00
2023-03-07T04:43:05.344Z,45.40
2023-03-07T04:45:34.269Z,44.80
2023-03-07T04:48:01.004Z,45.00
2023-03-07T04:50:27.548Z,44.90
2023-03-07T04:52:54.107Z,45.10
2023-03-07T04:55:20.688Z,45.00
2023-03-07T04:57:47.617Z,44.60
2023-03-07T05:00:14.407Z,44.80
2023-03-07T05:02:41.057Z,44.80
2023-03-07T05:05:07.917Z,44.80
2023-03-07T05:07:34.502Z,44.80
2023-03-07T05:10:01.107Z,45.40
2023-03-07T05:12:27.682Z,45.10
2023-03-07T05:14:54.232Z,44.90
2023-03-07T05:17:20.818Z,45.00
2023-03-07T05:19:47.391Z,44.90
2023-03-07T05:22:13.943Z,44.80
2023-03-07T05:24:40.499Z,44.80
2023-03-07T05:27:07.061Z,45.40
2023-03-07T05:29:33.632Z,45.10
2023-03-07T05:32:01.515Z,45.50
2023-03-07T05:34:28.201Z,45.00
2023-03-07T05:36:54.764Z,45.50
2023-03-07T05:39:21.418Z,45.20
2023-03-07T05:41:47.992Z,45.40
2023-03-07T05:44:14.611Z,45.30
2023-03-07T05:46:41.187Z,45.10
2023-03-07T05:49:07.750Z,45.70
2023-03-07T05:51:34.357Z,44.90
2023-03-07T05:54:00.960Z,45.10
2023-03-07T05:56:27.518Z,44.80
2023-03-07T05:58:54.098Z,44.90
2023-03-07T06:01:20.742Z,44.90
2023-03-07T06:03:48.452Z,45.20
2023-03-07T06:06:15.022Z,44.90
2023-03-07T06:08:41.650Z,44.90
2023-03-07T06:11:09.681Z,45.10
2023-03-07T06:13:36.269Z,45.10
2023-03-07T06:16:02.907Z,45.10
2023-03-07T06:18:29.533Z,45.20
2023-03-07T06:21:04.016Z,45.80
2023-03-07T06:23:31.457Z,45.80
2023-03-07T06:25:58.560Z,45.30
2023-03-07T06:28:25.556Z,45.30
2023-03-07T06:30:52.199Z,45.50
2023-03-07T06:33:18.757Z,45.30
2023-03-07T06:35:45.478Z,45.90
2023-03-07T06:38:13.428Z,45.20
2023-03-07T06:40:40.312Z,45.20
2023-03-07T06:43:06.862Z,45.40
2023-03-07T06:45:33.579Z,45.10
2023-03-07T06:48:00.153Z,45.00
2023-03-07T06:50:35.204Z,45.90
2023-03-07T06:53:02.425Z,46.50
2023-03-07T06:55:29.013Z,46.10
2023-03-07T06:57:55.655Z,45.90
2023-03-07T07:00:23.037Z,45.70
2023-03-07T07:02:50.141Z,46.00
2023-03-07T07:05:16.932Z,46.10
2023-03-07T07:07:43.520Z,45.60
2023-03-07T07:10:10.541Z,45.70
2023-03-07T07:12:37.155Z,45.50
2023-03-07T07:15:05.737Z,45.60
2023-03-07T07:17:32.792Z,45.40
2023-03-07T07:19:59.468Z,45.60
2023-03-07T07:22:26.036Z,45.50
2023-03-07T07:24:52.619Z,45.60
2023-03-07T07:27:19.842Z,45.80
2023-03-07T07:29:46.422Z,45.80
2023-03-07T07:32:13.145Z,45.70
2023-03-07T07:34:39.799Z,46.40
2023-03-07T07:37:06.662Z,46.70
2023-03-07T07:39:33.257Z,45.80
2023-03-07T07:41:59.889Z,45.90
2023-03-07T07:44:28.999Z,46.40
2023-03-07T07:46:55.643Z,45.90
2023-03-07T07:49:22.271Z,46.10
2023-03-07T07:51:48.987Z,45.80
2023-03-07T07:54:15.540Z,46.40
2023-03-07T07:56:42.196Z,45.80
2023-03-07T07:59:08.781Z,46.20
2023-03-07T08:01:35.377Z,46.30
2023-03-07T08:04:01.933Z,46.00
2023-03-07T08:06:28.979Z,45.90
2023-03-07T08:08:55.773Z,46.50
2023-03-07T08:11:22.820Z,46.70
2023-03-07T08:13:50.133Z,46.20
2023-03-07T08:16:18.374Z,46.40
2023-03-07T08:18:55.772Z,46.30
2023-03-07T08:21:22.738Z,46.60
2023-03-07T08:23:49.348Z,46.30
2023-03-07T08:26:17.556Z,46.40
2023-03-07T08:28:44.195Z,46.30
2023-03-07T08:31:23.398Z,46.30
2023-03-07T08:33:50.693Z,46.10
2023-03-07T08:36:17.640Z,47.00
2023-03-07T08:38:47.465Z,46.70
2023-03-07T08:41:14.041Z,46.30
2023-03-07T08:43:40.709Z,46.50
2023-03-07T08:46:07.478Z,46.90
2023-03-07T08:48:34.463Z,46.70
2023-03-07T08:51:08.363Z,46.80
2023-03-07T08:53:35.051Z,46.70
2023-03-07T08:56:05.238Z,46.70
2023-03-07T08:58:31.834Z,47.00
2023-03-07T09:00:58.774Z,47.10
2023-03-07T09:03:25.403Z,46.80
2023-03-07T09:05:52.310Z,46.80
2023-03-07T09:08:18.948Z,47.00
2023-03-07T09:10:45.579Z,47.00
2023-03-07T09:13:12.304Z,46.90
2023-03-07T09:15:39.878Z,47.40
2023-03-07T09:18:07.072Z,46.90
2023-03-07T09:20:33.648Z,47.50
2023-03-07T09:23:00.320Z,47.60
2023-03-07T09:25:26.887Z,47.30
2023-03-07T09:27:53.938Z,48.00
2023-03-07T09:30:20.768Z,47.40
2023-03-07T09:32:47.347Z,47.30
2023-03-07T09:35:14.011Z,47.50
2023-03-07T09:37:40.594Z,47.40
2023-03-07T09:40:07.818Z,47.30
2023-03-07T09:42:56.054Z,47.30
2023-03-07T09:45:58.467Z,47.40
2023-03-07T09:48:40.098Z,47.60
2023-03-07T09:51:15.889Z,47.60
2023-03-07T09:53:44.130Z,47.60
2023-03-07T09:56:16.787Z,47.70
2023-03-07T09:58:44.829Z,47.70
2023-03-07T10:01:13.273Z,48.30
2023-03-07T10:03:55.074Z,47.60
2023-03-07T10:06:25.163Z,47.70
2023-03-07T10:08:52.568Z,47.70
2023-03-07T10:11:28.738Z,47.80
2023-03-07T10:14:01.306Z,47.90
2023-03-07T10:16:50.827Z,47.70
2023-03-07T10:19:27.599Z,47.80
2023-03-07T10:22:00.650Z,47.80
2023-03-07T10:24:51.533Z,47.50
2023-03-07T10:27:19.237Z,47.70
2023-03-07T10:29:47.524Z,48.10
2023-03-07T10:32:31.813Z,48.30
2023-03-07T10:35:20.709Z,47.90
2023-03-07T10:37:51.803Z,47.70
2023-03-07T10:40:31.224Z,47.80
2023-03-07T10:42:58.625Z,48.10
2023-03-07T10:45:27.359Z,48.20
2023-03-07T10:47:53.926Z,48.00
2023-03-07T10:50:23.521Z,48.10
2023-03-07T10:52:53.778Z,48.00
2023-03-07T10:55:30.727Z,48.20
2023-03-07T10:58:19.619Z,48.10
2023-03-07T11:00:55.019Z,47.90
2023-03-07T11:03:42.533Z,48.50
2023-03-07T11:06:31.760Z,48.30
2023-03-07T11:09:08.791Z,48.60
2023-03-07T11:11:36.080Z,49.40
2023-03-07T11:14:04.619Z,48.10
2023-03-07T11:16:31.269Z,48.10
2023-03-07T11:18:57.999Z,47.90
2023-03-07T11:21:29.761Z,48.20
2023-03-07T11:24:00.854Z,48.60
2023-03-07T11:26:30.044Z,48.20
2023-03-07T11:29:07.296Z,48.20
2023-03-07T11:31:39.999Z,48.70
2023-03-07T11:34:08.173Z,49.00
2023-03-07T11:36:39.577Z,48.70
2023-03-07T11:39:21.066Z,48.70
2023-03-07T11:41:55.743Z,49.10
2023-03-07T11:44:46.633Z,49.00
2023-03-07T11:47:30.628Z,48.60
2023-03-07T11:50:04.201Z,48.50
2023-03-07T11:53:06.377Z,49.10
2023-03-07T11:55:36.111Z,48.70
2023-03-07T11:58:12.030Z,48.90
2023-03-07T12:00:41.574Z,48.90
2023-03-07T12:03:14.285Z,48.80
2023-03-07T12:05:43.932Z,48.60
2023-03-07T12:08:27.941Z,48.40
2023-03-07T12:11:14.746Z,48.50
2023-03-07T12:13:54.735Z,48.40
2023-03-07T12:16:36.342Z,48.60
2023-03-07T12:19:02.948Z,48.50
2023-03-07T12:21:38.606Z,48.60
2023-03-07T12:24:17.765Z,48.80
2023-03-07T12:26:53.781Z,48.50
2023-03-07T12:29:23.355Z,48.50
2023-03-07T12:31:51.664Z,48.50
2023-03-07T12:34:39.974Z,48.60
2023-03-07T12:37:12.366Z,48.50
2023-03-07T12:39:57.875Z,48.90
2023-03-07T12:42:38.521Z,48.50
2023-03-07T12:45:08.040Z,48.90
2023-03-07T12:47:57.881Z,48.90
2023-03-07T12:50:43.817Z,48.60
2023-03-07T12:53:25.742Z,48.60
2023-03-07T12:55:52.282Z,48.70
2023-03-07T12:58:27.730Z,48.40
2023-03-07T13:00:56.905Z,48.60
2023-03-07T13:03:31.532Z,48.70
2023-03-07T13:05:58.233Z,48.50
2023-03-07T13:08:25.373Z,48.60
2023-03-07T13:10:52.076Z,48.50
2023-03-07T13:13:37.727Z,48.70
2023-03-07T13:16:05.217Z,48.70
2023-03-07T13:18:32.445Z,48.50
2023-03-07T13:21:13.238Z,48.70
2023-03-07T13:23:40.015Z,48.60
2023-03-07T13:26:09.463Z,48.60
2023-03-07T13:28:41.195Z,48.50
2023-03-07T13:31:17.419Z,48.60
2023-03-07T13:33:44.092Z,48.60
2023-03-07T13:36:29.208Z,48.50
2023-03-07T13:38:55.797Z,48.30
2023-03-07T13:41:48.499Z,48.20
2023-03-07T13:44:37.831Z,48.20
2023-03-07T13:47:05.006Z,48.20
2023-03-07T13:49:36.139Z,48.10
2023-03-07T13:52:21.150Z,48.10
2023-03-07T13:54:48.809Z,48.20
2023-03-07T13:57:19.584Z,48.00
2023-03-07T13:59:47.418Z,48.10
2023-03-07T14:02:16.263Z,48.20
2023-03-07T14:04:51.873Z,48.30
2023-03-07T14:07:26.117Z,48.10
2023-03-07T14:09:57.024Z,48.20
2023-03-07T14:12:48.847Z,48.30
2023-03-07T14:15:15.385Z,48.40
2023-03-07T14:17:53.754Z,48.20
2023-03-07T14:20:26.237Z,48.40
2023-03-07T14:23:07.235Z,48.20
2023-03-07T14:25:42.922Z,48.20
2023-03-07T14:28:20.487Z,48.10
2023-03-07T14:31:00.420Z,48.20
2023-03-07T14:33:34.734Z,48.30
2023-03-07T14:36:02.307Z,48.30
2023-03-07T14:38:28.968Z,48.40
2023-03-07T14:41:07.722Z,48.30
2023-03-07T14:43:41.739Z,48.50
2023-03-07T14:46:08.699Z,48.30
2023-03-07T14:48:41.331Z,48.50
2023-03-07T14:51:13.202Z,48.30
2023-03-07T14:53:40.129Z,48.50
2023-03-07T14:56:07.582Z,48.30
2023-03-07T14:58:35.505Z,48.40
2023-03-07T15:01:03.743Z,48.40
2023-03-07T15:03:30.646Z,48.40
2023-03-07T15:06:01.058Z,48.00
2023-03-07T15:08:32.183Z,48.30
2023-03-07T15:11:17.676Z,48.40
2023-03-07T15:13:55.363Z,48.30
2023-03-07T15:16:23.203Z,48.30
2023-03-07T15:18:53.859Z,48.30
2023-03-07T15:21:21.547Z,48.10
2023-03-07T15:23:53.801Z,48.10
2023-03-07T15:26:22.409Z,48.30
2023-03-07T15:28:49.156Z,48.30
2023-03-07T15:31:15.979Z,48.20
2023-03-07T15:33:42.599Z,48.00
2023-03-07T15:36:12.227Z,48.00
2023-03-07T15:38:52.206Z,48.10
2023-03-07T15:41:29.808Z,48.10
2023-03-07T15:44:05.502Z,47.90
2023-03-07T15:46:32.834Z,48.20
2023-03-07T15:48:59.437Z,48.00
2023-03-07T15:51:34.192Z,48.20
2023-03-07T15:54:01.885Z,48.00
2023-03-07T15:56:30.612Z,47.90
2023-03-07T15:59:00.276Z,48.00
2023-03-07T16:01:27.519Z,48.20
2023-03-07T16:03:55.475Z,48.10
2023-03-07T16:06:51.210Z,48.10
2023-03-07T16:09:18.381Z,48.10
2023-03-07T16:11:46.229Z,48.30
2023-03-07T16:14:21.937Z,48.20
2023-03-07T16:16:48.664Z,48.10
2023-03-07T16:19:15.365Z,48.10
2023-03-07T16:21:41.936Z,48.30
2023-03-07T16:24:08.564Z,48.30
2023-03-07T16:26:35.303Z,48.10
2023-03-07T16:29:02.032Z,48.10
2023-03-07T16:31:28.615Z,48.10
2023-03-07T16:33:55.924Z,48.20
2023-03-07T16:36:22.499Z,48.20
2023-03-07T16:38:49.048Z,48.10
2023-03-07T16:41:17.094Z,48.10
2023-03-07T16:43:45.881Z,47.90
2023-03-07T16:46:15.070Z,48.10
2023-03-07T16:48:42.187Z,48.00
2023-03-07T16:51:12.986Z,48.20
2023-03-07T16:53:39.660Z,47.90
2023-03-07T16:56:07.806Z,47.80
2023-03-07T16:58:35.694Z,47.70
2023-03-07T17:01:03.102Z,47.80
2023-03-07T17:03:30.592Z,48.20
2023-03-07T17:05:57.176Z,48.00
2023-03-07T17:08:23.990Z,47.90
2023-03-07T17:10:50.575Z,47.80
2023-03-07T17:13:17.727Z,47.80
2023-03-07T17:15:45.647Z,47.80
2023-03-07T17:18:12.788Z,47.80
2023-03-07T17:20:39.556Z,47.90
2023-03-07T17:23:06.497Z,47.80
2023-03-07T17:25:33.265Z,47.60
2023-03-07T17:28:08.049Z,47.60
2023-03-07T17:30:34.714Z,47.70
2023-03-07T17:33:01.512Z,47.90
2023-03-07T17:35:28.369Z,47.60
2023-03-07T17:37:55.225Z,47.70
2023-03-07T17:40:22.259Z,47.70
2023-03-07T17:42:52.316Z,47.70
2023-03-07T17:45:19.010Z,47.70
2023-03-07T17:47:49.301Z,47.70
2023-03-07T17:50:15.858Z,47.80
2023-03-07T17:52:43.490Z,47.70
2023-03-07T17:55:10.296Z,47.60
2023-03-07T17:57:37.029Z,47.70
2023-03-07T18:00:06.843Z,47.70
2023-03-07T18:02:35.072Z,47.70
2023-03-07T18:05:01.799Z,48.30
2023-03-07T18:07:28.499Z,47.60
2023-03-07T18:10:07.244Z,47.40
2023-03-07T18:12:34.502Z,47.70
2023-03-07T18:15:01.093Z,47.50
2023-03-07T18:17:33.262Z,47.60
2023-03-07T18:20:08.027Z,48.00
2023-03-07T18:22:34.691Z,47.00
2023-03-07T18:25:01.308Z,47.30
2023-03-07T18:27:27.863Z,47.30
2023-03-07T18:29:54.459Z,47.40
2023-03-07T18:32:21.148Z,47.30
2023-03-07T18:34:47.995Z,47.60
2023-03-07T18:37:16.159Z,47.20
2023-03-07T18:39:42.806Z,47.10
2023-03-07T18:42:09.364Z,47.30
2023-03-07T18:44:38.671Z,47.70
2023-03-07T18:47:05.376Z,47.10
2023-03-07T18:49:32.175Z,47.00
2023-03-07T18:51:58.828Z,46.90
2023-03-07T18:54:25.413Z,47.00
2023-03-07T18:56:52.141Z,47.10
2023-03-07T18:59:18.853Z,47.10
2023-03-07T19:01:45.560Z,47.30
2023-03-07T19:04:12.200Z,47.20
2023-03-07T19:06:40.750Z,47.20
2023-03-07T19:09:09.802Z,47.20
2023-03-07T19:11:36.382Z,47.10
2023-03-07T19:14:03.029Z,47.10
2023-03-07T19:16:29.775Z,47.50
2023-03-07T19:18:56.890Z,47.40
2023-03-07T19:21:24.650Z,47.10
2023-03-07T19:23:51.917Z,47.30
2023-03-07T19:26:19.280Z,47.30
2023-03-07T19:28:46.790Z,47.40
2023-03-07T19:31:23.574Z,47.30
2023-03-07T19:33:50.831Z,47.10
2023-03-07T19:36:20.228Z,47.50
2023-03-07T19:38:50.839Z,47.30
2023-03-07T19:41:18.427Z,47.20
2023-03-07T19:43:45.252Z,47.30
2023-03-07T19:46:12.686Z,47.40
2023-03-07T19:48:40.835Z,47.50
2023-03-07T19:51:15.300Z,47.20
2023-03-07T19:53:42.389Z,47.30
2023-03-07T19:56:29.303Z,47.40
2023-03-07T19:58:56.537Z,47.40
2023-03-07T20:01:23.552Z,47.20
2023-03-07T20:03:51.007Z,47.00
2023-03-07T20:06:20.033Z,47.20
2023-03-07T20:08:47.833Z,47.30
2023-03-07T20:11:15.818Z,47.30
2023-03-07T20:13:43.515Z,47.00
2023-03-07T20:16:10.622Z,47.00
2023-03-07T20:18:37.532Z,47.10
2023-03-07T20:21:05.108Z,47.00
2023-03-07T20:23:31.798Z,47.10
2023-03-07T20:26:05.614Z,47.40
2023-03-07T20:28:32.289Z,47.20
2023-03-07T20:30:58.961Z,48.10
2023-03-07T20:33:25.548Z,47.10
2023-03-07T20:36:05.881Z,47.00
2023-03-07T20:38:33.105Z,47.20
2023-03-07T20:41:00.890Z,47.20
2023-03-07T20:43:27.520Z,47.20
2023-03-07T20:45:54.205Z,47.20
2023-03-07T20:48:20.845Z,47.30
2023-03-07T20:50:47.451Z,47.20
2023-03-07T20:53:14.009Z,47.30
2023-03-07T20:55:40.576Z,47.20
2023-03-07T20:58:08.096Z,47.20
2023-03-07T21:00:34.687Z,47.10
2023-03-07T21:03:05.912Z,47.10
2023-03-07T21:05:32.913Z,47.10
2023-03-07T21:07:59.481Z,47.20
2023-03-07T21:10:26.046Z,47.90
2023-03-07T21:12:53.217Z,47.10
2023-03-07T21:15:20.017Z,47.30
2023-03-07T21:17:46.825Z,47.20
2023-03-07T21:20:13.467Z,47.20
2023-03-07T21:22:40.606Z,47.70
2023-03-07T21:25:07.441Z,47.20
2023-03-07T21:27:34.017Z,47.20
2023-03-07T21:30:00.600Z,47.20
2023-03-07T21:32:27.229Z,47.30
2023-03-07T21:34:53.831Z,47.10
2023-03-07T21:37:20.659Z,47.50
2023-03-07T21:39:47.254Z,47.70
2023-03-07T21:42:13.897Z,47.10
2023-03-07T21:44:40.472Z,47.40
2023-03-07T21:47:07.085Z,47.20
2023-03-07T21:49:33.936Z,47.20
2023-03-07T21:52:00.577Z,47.10
2023-03-07T21:54:27.256Z,47.10
2023-03-07T21:56:53.885Z,47.30
2023-03-07T21:59:20.488Z,47.00
2023-03-07T22:01:47.130Z,46.90
2023-03-07T22:04:13.857Z,47.30
2023-03-07T22:06:40.419Z,47.10
2023-03-07T22:09:07.098Z,46.90
2023-03-07T22:11:33.752Z,47.40
2023-03-07T22:14:00.400Z,46.90
2023-03-07T22:16:27.065Z,46.90
2023-03-07T22:18:54.695Z,47.00
2023-03-07T22:21:21.461Z,46.90
2023-03-07T22:23:48.847Z,46.90
2023-03-07T22:26:15.443Z,46.80
2023-03-07T22:28:42.075Z,46.90
2023-03-07T22:31:10.688Z,47.10
2023-03-07T22:33:37.521Z,47.50
2023-03-07T22:36:05.818Z,47.30
2023-03-07T22:38:32.482Z,46.90
2023-03-07T22:41:17.745Z,47.00
2023-03-07T22:43:44.460Z,47.10
2023-03-07T22:46:11.441Z,46.90
2023-03-07T22:48:38.460Z,47.00
2023-03-07T22:51:05.505Z,47.50
2023-03-07T22:53:32.945Z,47.00
2023-03-07T22:56:00.029Z,47.10
2023-03-07T22:58:27.089Z,46.90
2023-03-07T23:00:53.784Z,46.90
2023-03-07T23:03:20.530Z,47.10
2023-03-07T23:05:47.175Z,47.10
2023-03-07T23:08:13.967Z,47.70
2023-03-07T23:10:40.570Z,46.90
2023-03-07T23:13:07.204Z,47.00
2023-03-07T23:15:33.839Z,46.90
2023-03-07T23:18:00.446Z,47.00
2023-03-07T23:20:27.060Z,47.10
2023-03-07T23:22:53.820Z,47.10
2023-03-07T23:25:22.246Z,47.00
2023-03-07T23:27:48.850Z,46.90
2023-03-07T23:30:17.384Z,46.80
2023-03-07T23:32:44.299Z,47.10
2023-03-07T23:35:11.501Z,47.10
2023-03-07T23:37:38.074Z,46.90
2023-03-07T23:40:05.130Z,46.80
2023-03-07T23:42:31.834Z,46.90
2023-03-07T23:44:58.540Z,46.80
2023-03-07T23:47:25.088Z,46.80
2023-03-07T23:49:51.661Z,46.70
2023-03-07T23:52:18.246Z,46.60
2023-03-07T23:54:45.736Z,47.10
2023-03-07T23:57:12.324Z,47.10
2023-03-07T23:59:38.871Z,46.70
